< Typhoon 202105 2021 Season Typhoon 202107 >
Typhoon 202106 (IN-FA)
General InformationDetailed Track InformationTrack Information on Google MapsForecast History on Google MapsAccess Analytics MapList of All Images || NewsDisaster Info.WeblogTrackbackTyphoon FrontTwiphoonTyphoon Now!Typhoon ImaginationJMA Disaster Info. XMLResourceGoogle EarthGE AnimationAtom FeedGeoJSON
Detalied Best Track Wind (Time Zone = UTC)
Year Month Day Hour Lat. Long. Wind (kt) Gust (kt) Direc. of Major Storm Axis Radius of Major Storm Axis (nm) Radius of Minor Storm Axis (nm) Direc. of Major Gale Axis Radius of Major Gale Axis (nm) Radius of Minor Gale Axis (nm) Image
2021 7 16 15 19.4 135.0 30 45 - - - - - - Image
2021 7 16 18 19.6 135.0 30 45 - - - - - - Image
2021 7 16 21 20.0 134.5 30 45 - - - - - - Image
2021 7 17 00 20.5 133.8 30 45 - - - - - - Image
2021 7 17 03 21.2 133.6 30 45 - - - - - - Image
2021 7 17 06 21.7 133.6 30 45 - - - - - - Image
2021 7 17 09 21.8 132.9 30 45 - - - - - - Image
2021 7 17 12 21.9 132.8 30 45 - - - - - - Image
2021 7 17 15 22.2 132.6 30 45 - - - - - - Image
2021 7 17 18 22.2 132.6 35 50 - - - E 300 120 Image
2021 7 17 21 22.3 132.6 35 50 - - - E 300 120 Image
2021 7 18 00 22.7 132.4 35 50 - - - E 300 120 Image
2021 7 18 03 22.9 132.3 35 50 - - - S 350 150 Image
2021 7 18 06 23.0 132.3 40 60 - - - S 350 150 Image
2021 7 18 09 23.2 132.2 40 60 - - - S 350 150 Image
2021 7 18 12 23.5 131.9 40 60 - - - S 350 150 Image
2021 7 18 15 23.7 131.7 40 60 - - - S 350 150 Image
2021 7 18 18 23.9 131.6 45 65 - - - SE 300 150 Image
2021 7 18 21 24.2 131.3 45 65 - - - SE 300 150 Image
2021 7 19 00 24.2 131.3 50 70 - - - SE 300 150 Image
2021 7 19 03 24.2 131.3 50 70 - - - SE 300 150 Image
2021 7 19 06 24.2 131.3 50 70 - - - SE 300 150 Image
2021 7 19 09 24.2 131.3 50 70 - - - SE 300 150 Image
2021 7 19 12 24.2 131.3 50 70 - - - SE 300 150 Image
2021 7 19 15 24.2 131.3 50 70 - - - E 300 210 Image
2021 7 19 18 24.2 131.3 50 70 - - - E 300 210 Image
2021 7 19 21 24.4 131.0 50 70 - - - E 300 210 Image
2021 7 20 00 24.5 130.7 55 80 NE 100 80 E 300 210 Image
2021 7 20 03 24.6 130.3 55 80 NE 100 80 E 300 210 Image
2021 7 20 06 24.7 129.8 60 85 NE 120 80 NE 300 210 Image
2021 7 20 09 24.7 129.4 60 85 NE 120 80 NE 300 210 Image
2021 7 20 12 24.6 129.0 65 95 symmetric 100 100 NE 300 210 Image
2021 7 20 15 24.3 128.4 65 95 symmetric 100 100 NE 300 210 Image
2021 7 20 18 24.2 128.1 70 100 symmetric 100 100 NE 300 210 Image
2021 7 20 21 24.1 128.0 70 100 symmetric 100 100 NE 300 210 Image
2021 7 21 00 24.1 127.8 70 100 symmetric 100 100 N 325 210 Image
2021 7 21 03 24.1 127.7 75 105 symmetric 70 70 N 325 210 Image
2021 7 21 06 24.2 127.2 75 105 symmetric 70 70 N 325 210 Image
2021 7 21 09 24.1 126.9 75 105 symmetric 70 70 N 325 210 Image
2021 7 21 12 23.9 126.6 75 105 symmetric 70 70 N 325 210 Image
2021 7 21 15 23.8 126.4 75 105 symmetric 70 70 N 325 210 Image
2021 7 21 18 23.7 126.2 80 115 symmetric 70 70 N 325 240 Image
2021 7 21 21 23.5 126.0 80 115 symmetric 70 70 N 325 240 Image
2021 7 22 00 23.3 125.9 80 115 symmetric 70 70 N 325 240 Image
2021 7 22 03 23.4 125.9 80 115 symmetric 70 70 symmetric 270 270 Image
2021 7 22 06 23.5 125.7 80 115 symmetric 70 70 symmetric 270 270 Image
2021 7 22 09 23.5 125.7 80 115 symmetric 70 70 symmetric 270 270 Image
2021 7 22 12 23.5 125.7 80 115 symmetric 70 70 symmetric 270 270 Image
2021 7 22 15 23.6 125.7 80 115 symmetric 70 70 symmetric 270 270 Image
2021 7 22 18 23.6 125.5 80 115 symmetric 70 70 symmetric 270 270 Image
2021 7 22 21 23.9 125.5 80 115 symmetric 70 70 symmetric 270 270 Image
2021 7 23 00 24.2 125.5 80 115 symmetric 70 70 symmetric 270 270 Image
2021 7 23 03 24.5 125.3 80 115 symmetric 70 70 symmetric 270 270 Image
2021 7 23 06 24.6 125.0 80 115 symmetric 70 70 symmetric 270 270 Image
2021 7 23 09 24.6 125.0 80 115 symmetric 70 70 symmetric 270 270 Image
2021 7 23 12 24.8 125.0 75 105 symmetric 70 70 symmetric 270 270 Image
2021 7 23 15 25.1 125.0 75 105 symmetric 70 70 symmetric 300 300 Image
2021 7 23 18 25.4 125.0 75 105 E 110 70 symmetric 300 300 Image
2021 7 23 21 26.1 124.9 75 105 E 110 70 symmetric 300 300 Image
2021 7 24 00 26.5 124.7 75 105 E 120 80 symmetric 325 325 Image
2021 7 24 03 26.8 124.5 75 105 E 140 80 symmetric 325 325 Image
2021 7 24 06 27.2 124.4 80 115 E 150 80 symmetric 325 325 Image
2021 7 24 09 27.5 124.4 80 115 E 150 80 symmetric 325 325 Image
2021 7 24 12 28.0 123.9 80 115 E 120 80 symmetric 325 325 Image
2021 7 24 15 28.3 123.9 80 115 E 120 80 symmetric 325 325 Image
2021 7 24 18 28.6 123.8 70 100 symmetric 80 80 E 325 240 Image
2021 7 24 21 29.0 123.6 70 100 symmetric 80 80 E 325 240 Image
2021 7 25 00 29.6 123.1 70 100 symmetric 80 80 E 325 240 Image
2021 7 25 03 29.7 122.9 70 100 symmetric 80 80 E 325 240 Image
2021 7 25 06 30.0 122.5 65 95 symmetric 80 80 E 325 240 Image
2021 7 25 09 30.0 122.3 65 95 symmetric 60 60 E 325 240 Image
2021 7 25 12 30.1 122.1 60 85 symmetric 60 60 E 325 240 Image
2021 7 25 15 30.1 121.8 60 85 symmetric 60 60 E 325 240 Image
2021 7 25 18 30.1 121.6 55 80 symmetric 40 40 E 325 210 Image
2021 7 25 21 30.2 121.4 55 80 symmetric 40 40 E 325 210 Image
2021 7 26 00 30.5 121.2 50 70 - - - E 325 210 Image
2021 7 26 03 30.7 121.1 50 70 - - - E 325 210 Image
2021 7 26 06 30.9 121.0 50 70 - - - E 300 180 Image
2021 7 26 09 30.7 120.8 50 70 - - - E 250 150 Image
2021 7 26 12 30.7 120.6 45 65 - - - NE 200 100 Image
2021 7 26 15 30.8 120.3 45 65 - - - NE 200 100 Image
2021 7 26 18 30.9 119.9 40 60 - - - NE 200 100 Image
2021 7 26 21 30.9 119.7 40 60 - - - NE 200 100 Image
2021 7 27 00 31.2 119.5 40 60 - - - E 200 100 Image
2021 7 27 03 31.1 119.2 40 60 - - - E 200 100 Image
2021 7 27 06 31.2 119.0 35 50 - - - E 200 100 Image
2021 7 27 09 31.3 119.0 35 50 - - - E 200 100 Image
2021 7 27 12 31.6 119.0 35 50 - - - E 200 100 Image
2021 7 27 15 31.7 118.5 35 50 - - - E 200 100 Image
2021 7 27 18 32.0 118.0 0 0 - - - - - - Image
Japan Meteorological Agency Best Track Data | Correction Date : 2021-07-27
< Typhoon 202105 2021 Season Typhoon 202107 >

Help